createdAt,value
2022-09-24T00:01:42.928Z,0.93
2022-09-24T00:04:12.868Z,1.13
2022-09-24T00:06:44.346Z,1.00
2022-09-24T00:09:12.823Z,1.15
2022-09-24T00:11:41.040Z,0.95
2022-09-24T00:14:10.733Z,1.00
2022-09-24T00:16:40.479Z,0.82
2022-09-24T00:19:08.441Z,0.90
2022-09-24T00:21:37.992Z,1.02
2022-09-24T00:24:08.753Z,0.80
2022-09-24T00:26:51.390Z,1.02
2022-09-24T00:29:24.054Z,0.98
2022-09-24T00:31:53.599Z,0.90
2022-09-24T00:34:22.520Z,0.88
2022-09-24T00:36:50.372Z,1.05
2022-09-24T00:39:18.264Z,1.00
2022-09-24T00:41:48.954Z,0.95
2022-09-24T00:44:56.421Z,0.90
2022-09-24T00:47:36.941Z,0.95
2022-09-24T00:50:15.630Z,0.82
2022-09-24T00:52:46.498Z,1.00
2022-09-24T00:55:16.645Z,1.17
2022-09-24T00:57:46.067Z,0.88
2022-09-24T01:00:16.132Z,0.90
2022-09-24T01:02:47.700Z,1.02
2022-09-24T01:05:15.734Z,0.98
2022-09-24T01:07:43.608Z,0.85
2022-09-24T01:10:12.013Z,1.00
2022-09-24T01:12:46.916Z,1.08
2022-09-24T01:15:25.218Z,1.00
2022-09-24T01:18:02.866Z,1.20
2022-09-24T01:21:00.935Z,0.77
2022-09-24T01:23:48.769Z,1.02
2022-09-24T01:26:34.248Z,0.98
2022-09-24T01:29:25.828Z,0.93
2022-09-24T01:32:02.507Z,1.00
2022-09-24T01:34:41.778Z,1.15
2022-09-24T01:37:10.247Z,0.90
2022-09-24T01:39:40.031Z,0.90
2022-09-24T01:42:10.945Z,1.10
2022-09-24T01:44:42.078Z,0.88
2022-09-24T01:47:14.259Z,1.00
2022-09-24T01:49:42.218Z,1.38
2022-09-24T01:52:15.981Z,0.88
2022-09-24T01:54:50.813Z,1.08
2022-09-24T01:57:23.886Z,1.10
2022-09-24T01:59:57.624Z,1.00
2022-09-24T02:02:34.495Z,1.40
2022-09-24T02:05:06.519Z,1.17
2022-09-24T02:07:39.724Z,1.20
2022-09-24T02:10:15.828Z,1.15
2022-09-24T02:12:47.752Z,1.45
2022-09-24T02:15:20.734Z,1.20
2022-09-24T02:17:55.666Z,1.00
2022-09-24T02:22:53.359Z,1.20
2022-09-24T02:25:26.576Z,1.40
2022-09-24T02:27:54.622Z,1.00
2022-09-24T02:30:22.577Z,1.10
2022-09-24T02:32:54.615Z,1.10
2022-09-24T02:35:22.449Z,0.93
2022-09-24T02:37:50.292Z,1.00
2022-09-24T02:40:18.245Z,1.33
2022-09-24T02:42:46.134Z,1.30
2022-09-24T02:45:14.567Z,1.20
2022-09-24T02:47:42.427Z,1.20
2022-09-24T02:50:11.943Z,1.45
2022-09-24T02:52:39.794Z,1.02
2022-09-24T02:55:08.129Z,1.30
2022-09-24T02:57:36.920Z,1.42
2022-09-24T03:00:06.192Z,1.40
2022-09-24T03:02:35.418Z,1.23
2022-09-24T03:05:03.394Z,1.08
2022-09-24T03:07:32.655Z,1.10
2022-09-24T03:10:00.530Z,1.17
2022-09-24T03:12:28.462Z,1.27
2022-09-24T03:14:56.377Z,1.15
2022-09-24T03:17:24.275Z,1.15
2022-09-24T03:19:52.188Z,1.15
2022-09-24T03:22:20.066Z,1.20
2022-09-24T03:24:49.316Z,1.60
2022-09-24T03:27:17.233Z,0.98
2022-09-24T03:30:04.744Z,1.25
2022-09-24T03:32:33.763Z,1.15
2022-09-24T03:35:01.645Z,1.10
2022-09-24T03:37:29.524Z,1.33
2022-09-24T03:39:58.738Z,1.33
2022-09-24T03:42:26.570Z,1.40
2022-09-24T03:44:54.504Z,1.52
2022-09-24T03:47:22.355Z,1.10
2022-09-24T03:49:50.236Z,1.20
2022-09-24T03:52:18.180Z,1.38
2022-09-24T03:54:46.129Z,1.20
2022-09-24T03:57:15.682Z,1.02
2022-09-24T03:59:44.111Z,1.23
2022-09-24T04:02:12.905Z,1.10
2022-09-24T04:04:41.203Z,1.20
2022-09-24T04:07:09.091Z,1.00
2022-09-24T04:09:37.082Z,1.25
2022-09-24T04:12:06.293Z,1.20
2022-09-24T04:14:35.590Z,1.42
2022-09-24T04:17:03.700Z,1.10
2022-09-24T04:19:32.072Z,1.20
2022-09-24T04:21:59.947Z,1.42
2022-09-24T04:24:27.967Z,1.25
2022-09-24T04:26:55.863Z,1.33
2022-09-24T04:29:23.792Z,1.30
2022-09-24T04:31:53.154Z,1.55
2022-09-24T04:34:21.257Z,1.15
2022-09-24T04:36:49.124Z,1.30
2022-09-24T04:39:17.015Z,1.25
2022-09-24T04:41:47.102Z,1.30
2022-09-24T04:44:15.294Z,1.15
2022-09-24T04:46:43.295Z,1.35
2022-09-24T04:49:12.816Z,1.30
2022-09-24T04:51:40.743Z,1.40
2022-09-24T04:54:09.372Z,1.30
2022-09-24T04:56:37.227Z,2.28
2022-09-24T04:59:05.276Z,1.25
2022-09-24T05:01:33.609Z,1.20
2022-09-24T05:04:01.957Z,1.33
2022-09-24T05:06:31.179Z,1.55
2022-09-24T05:08:59.164Z,1.55
2022-09-24T05:11:27.061Z,1.20
2022-09-24T05:13:54.940Z,1.40
2022-09-24T05:16:23.253Z,1.42
2022-09-24T05:18:51.182Z,1.30
2022-09-24T05:21:19.072Z,1.52
2022-09-24T05:23:48.347Z,1.50
2022-09-24T05:26:33.527Z,1.35
2022-09-24T05:29:01.692Z,1.17
2022-09-24T05:31:29.635Z,1.30
2022-09-24T05:33:57.741Z,1.50
2022-09-24T05:36:26.899Z,1.50
2022-09-24T05:38:56.263Z,1.30
2022-09-24T05:41:24.149Z,1.52
2022-09-24T05:43:52.095Z,1.67
2022-09-24T05:46:20.040Z,1.73
2022-09-24T05:48:47.927Z,1.45
2022-09-24T05:51:15.984Z,1.55
2022-09-24T05:53:44.212Z,1.50
2022-09-24T05:56:13.489Z,1.83
2022-09-24T05:58:41.392Z,1.98
2022-09-24T06:01:09.412Z,1.55
2022-09-24T06:03:37.409Z,1.58
2022-09-24T06:06:05.370Z,1.85
2022-09-24T06:08:33.995Z,1.52
2022-09-24T06:11:05.214Z,1.38
2022-09-24T06:13:34.999Z,1.50
2022-09-24T06:16:03.661Z,1.17
2022-09-24T06:18:31.630Z,1.20
2022-09-24T06:21:02.675Z,1.17
2022-09-24T06:23:30.956Z,1.15
2022-09-24T06:25:58.886Z,1.30
2022-09-24T06:28:26.767Z,1.38
2022-09-24T06:30:56.182Z,1.58
2022-09-24T06:33:24.359Z,1.85
2022-09-24T06:35:52.197Z,1.50
2022-09-24T06:38:20.729Z,1.50
2022-09-24T06:40:49.331Z,1.55
2022-09-24T06:43:18.787Z,1.40
2022-09-24T06:45:46.713Z,1.38
2022-09-24T06:48:16.127Z,1.40
2022-09-24T06:50:47.282Z,1.55
2022-09-24T06:53:15.923Z,1.88
2022-09-24T06:55:43.814Z,1.60
2022-09-24T06:58:13.893Z,1.45
2022-09-24T07:00:42.923Z,1.67
2022-09-24T07:03:17.259Z,1.63
2022-09-24T07:05:45.331Z,1.70
2022-09-24T07:08:13.594Z,1.52
2022-09-24T07:10:44.074Z,1.40
2022-09-24T07:13:13.145Z,1.60
2022-09-24T07:15:41.204Z,1.98
2022-09-24T07:18:09.212Z,1.70
2022-09-24T07:20:38.479Z,1.40
2022-09-24T07:23:07.140Z,1.77
2022-09-24T07:25:35.629Z,1.40
2022-09-24T07:28:05.037Z,1.55
2022-09-24T07:30:33.491Z,1.35
2022-09-24T07:33:01.441Z,1.60
2022-09-24T07:35:30.253Z,1.30
2022-09-24T07:38:01.193Z,1.35
2022-09-24T07:40:30.239Z,1.42
2022-09-24T07:42:58.528Z,1.45
2022-09-24T07:45:29.419Z,1.15
2022-09-24T07:48:01.703Z,1.58
2022-09-24T07:50:31.659Z,1.40
2022-09-24T07:53:01.518Z,1.73
2022-09-24T07:55:29.416Z,1.80
2022-09-24T07:57:57.501Z,1.60
2022-09-24T08:00:26.323Z,1.65
2022-09-24T08:02:56.292Z,1.25
2022-09-24T08:05:24.216Z,1.48
2022-09-24T08:07:53.297Z,1.55
2022-09-24T08:10:23.190Z,1.67
2022-09-24T08:12:51.413Z,1.60
2022-09-24T08:15:19.666Z,1.35
2022-09-24T08:17:47.776Z,1.17
2022-09-24T08:20:15.766Z,1.35
2022-09-24T08:22:43.635Z,1.75
2022-09-24T08:25:11.554Z,1.42
2022-09-24T08:27:40.825Z,1.50
2022-09-24T08:30:09.896Z,1.67
2022-09-24T08:32:37.762Z,1.50
2022-09-24T08:35:08.199Z,1.70
2022-09-24T08:37:37.113Z,1.90
2022-09-24T08:40:05.473Z,2.08
2022-09-24T08:42:43.833Z,7.05
2022-09-24T08:45:30.418Z,9.50
2022-09-24T08:48:02.006Z,7.93
2022-09-24T08:50:32.370Z,6.72
2022-09-24T08:53:14.083Z,5.18
2022-09-24T08:55:47.353Z,4.95
2022-09-24T08:58:33.529Z,4.65
2022-09-24T09:01:13.340Z,4.85
2022-09-24T09:03:47.742Z,3.60
2022-09-24T09:06:32.215Z,4.38
2022-09-24T09:09:16.292Z,4.03
2022-09-24T09:11:49.878Z,3.22
2022-09-24T09:14:20.556Z,3.10
2022-09-24T09:16:53.226Z,3.05
2022-09-24T09:19:27.523Z,2.63
2022-09-24T09:21:58.337Z,3.28
2022-09-24T09:24:32.604Z,2.65
2022-09-24T09:27:01.074Z,2.60
2022-09-24T09:29:30.754Z,2.75
2022-09-24T09:32:10.944Z,2.33
2022-09-24T09:34:52.828Z,2.50
2022-09-24T09:37:29.516Z,2.50
2022-09-24T09:40:09.890Z,2.75
2022-09-24T09:42:40.405Z,2.67
2022-09-24T09:45:28.054Z,2.13
2022-09-24T09:47:58.566Z,2.30
2022-09-24T09:50:29.391Z,1.90
2022-09-24T09:52:57.589Z,2.13
2022-09-24T09:55:27.382Z,1.92
2022-09-24T09:58:09.158Z,2.30
2022-09-24T10:00:37.963Z,2.00
2022-09-24T10:03:07.471Z,2.30
2022-09-24T10:05:36.210Z,2.15
2022-09-24T10:08:04.111Z,2.45
2022-09-24T10:10:32.004Z,2.38
2022-09-24T10:13:10.174Z,2.03
2022-09-24T10:15:49.373Z,1.90
2022-09-24T10:18:28.323Z,2.25
2022-09-24T10:20:57.800Z,2.30
2022-09-24T10:23:34.645Z,2.00
2022-09-24T10:26:04.091Z,2.08
2022-09-24T10:28:51.258Z,1.70
2022-09-24T10:31:22.411Z,2.33
2022-09-24T10:33:55.879Z,2.20
2022-09-24T10:36:25.465Z,2.20
2022-09-24T10:39:03.956Z,2.20
2022-09-24T10:41:33.042Z,2.63
2022-09-24T10:44:05.291Z,2.17
2022-09-24T10:46:48.920Z,2.03
2022-09-24T10:49:30.066Z,2.20
2022-09-24T10:52:04.997Z,2.15
2022-09-24T10:57:19.952Z,2.50
2022-09-24T10:59:54.958Z,2.20
2022-09-24T11:05:05.374Z,2.63
2022-09-24T11:08:00.301Z,2.40
2022-09-24T11:10:51.331Z,2.67
2022-09-24T11:13:28.703Z,2.58
2022-09-24T11:16:25.841Z,2.53
2022-09-24T11:19:01.265Z,2.45
2022-09-24T11:21:40.970Z,2.20
2022-09-24T11:24:38.351Z,2.17
2022-09-24T11:27:28.331Z,2.17
2022-09-24T11:30:08.453Z,2.63
2022-09-24T11:32:54.257Z,2.28
2022-09-24T11:35:35.495Z,2.15
2022-09-24T11:38:11.250Z,2.17
2022-09-24T11:40:54.316Z,2.30
2022-09-24T11:43:46.017Z,2.30
2022-09-24T11:46:25.482Z,1.90
2022-09-24T11:49:12.049Z,2.33
2022-09-24T11:51:51.959Z,2.25
2022-09-24T11:54:27.918Z,2.80
2022-09-24T11:57:02.996Z,2.45
2022-09-24T11:59:37.990Z,2.17
2022-09-24T12:04:54.183Z,2.45
2022-09-24T12:07:27.689Z,2.40
2022-09-24T12:10:00.908Z,2.58
2022-09-24T12:12:33.804Z,2.33
2022-09-24T12:15:06.968Z,2.55
2022-09-24T12:17:41.756Z,2.40
2022-09-24T12:20:19.474Z,2.63
2022-09-24T12:22:49.915Z,2.17
2022-09-24T12:25:19.233Z,2.65
2022-09-24T12:27:48.389Z,2.22
2022-09-24T12:30:53.434Z,2.25
2022-09-24T12:33:27.849Z,2.42
2022-09-24T12:36:06.574Z,2.65
2022-09-24T12:38:38.139Z,2.63
2022-09-24T12:41:28.658Z,2.70
2022-09-24T12:44:03.048Z,2.17
2022-09-24T12:46:34.245Z,2.60
2022-09-24T12:49:02.873Z,3.17
2022-09-24T12:51:39.316Z,4.45
2022-09-24T12:54:10.238Z,4.50
2022-09-24T12:56:40.989Z,4.88
2022-09-24T12:59:26.420Z,4.68
2022-09-24T13:04:30.156Z,5.30
2022-09-24T13:06:58.138Z,6.38
2022-09-24T13:09:35.430Z,6.18
2022-09-24T13:12:21.828Z,6.43
2022-09-24T13:14:56.358Z,6.15
2022-09-24T13:17:24.873Z,5.40
2022-09-24T13:19:58.984Z,5.88
2022-09-24T13:22:29.886Z,6.73
2022-09-24T13:25:20.986Z,6.88
2022-09-24T13:28:00.126Z,6.25
2022-09-24T13:30:39.021Z,5.75
2022-09-24T13:33:21.287Z,5.90
2022-09-24T13:36:03.194Z,6.20
2022-09-24T13:38:34.856Z,6.45
2022-09-24T13:41:14.132Z,6.68
2022-09-24T13:43:49.557Z,6.65
2022-09-24T13:46:19.826Z,7.25
2022-09-24T13:48:53.042Z,6.53
2022-09-24T13:51:26.409Z,6.47
2022-09-24T13:53:58.967Z,6.32
2022-09-24T13:56:27.154Z,5.95
2022-09-24T13:59:06.154Z,6.43
2022-09-24T14:01:41.006Z,7.57
2022-09-24T14:04:17.676Z,6.85
2022-09-24T14:06:50.692Z,6.35
2022-09-24T14:09:28.118Z,6.90
2022-09-24T14:11:58.214Z,7.35
2022-09-24T14:14:29.562Z,7.35
2022-09-24T14:17:07.916Z,6.82
2022-09-24T14:19:36.167Z,6.68
2022-09-24T14:22:06.418Z,6.97
2022-09-24T14:24:36.494Z,8.10
2022-09-24T14:27:08.637Z,7.20
2022-09-24T14:29:48.188Z,7.07
2022-09-24T14:32:24.040Z,6.57
2022-09-24T14:34:55.462Z,7.63
2022-09-24T14:37:27.312Z,6.63
2022-09-24T14:40:02.632Z,6.20
2022-09-24T14:42:39.738Z,6.05
2022-09-24T14:45:11.540Z,6.68
2022-09-24T14:47:39.528Z,6.07
2022-09-24T14:50:27.618Z,6.55
2022-09-24T14:52:57.859Z,6.55
2022-09-24T14:55:38.366Z,7.50
2022-09-24T14:58:06.439Z,5.90
2022-09-24T15:00:47.605Z,7.50
2022-09-24T15:03:20.619Z,7.05
2022-09-24T15:05:48.840Z,7.85
2022-09-24T15:08:28.453Z,6.55
2022-09-24T15:10:58.783Z,6.75
2022-09-24T15:13:30.576Z,7.72
2022-09-24T15:16:17.383Z,6.10
2022-09-24T15:18:56.332Z,7.13
2022-09-24T15:21:24.315Z,6.50
2022-09-24T15:23:52.260Z,6.80
2022-09-24T15:26:20.696Z,5.50
2022-09-24T15:28:48.976Z,7.13
2022-09-24T15:31:18.332Z,5.93
2022-09-24T15:33:46.306Z,6.85
2022-09-24T15:36:15.060Z,5.80
2022-09-24T15:38:42.988Z,5.80
2022-09-24T15:41:10.883Z,5.15
2022-09-24T15:43:38.779Z,4.97
2022-09-24T15:46:06.934Z,6.28
2022-09-24T15:48:36.229Z,6.53
2022-09-24T15:51:10.141Z,6.13
2022-09-24T15:53:39.804Z,7.00
2022-09-24T15:56:08.062Z,6.28
2022-09-24T15:58:35.985Z,6.75
2022-09-24T16:01:03.872Z,5.60
2022-09-24T16:03:33.317Z,5.72
2022-09-24T16:06:03.340Z,5.65
2022-09-24T16:08:31.243Z,5.35
2022-09-24T16:10:59.119Z,5.18
2022-09-24T16:13:27.016Z,5.40
2022-09-24T16:15:54.950Z,6.07
2022-09-24T16:18:25.960Z,5.22
2022-09-24T16:20:54.020Z,5.63
2022-09-24T16:23:23.319Z,5.78
2022-09-24T16:26:01.292Z,5.10
2022-09-24T16:28:29.981Z,6.13
2022-09-24T16:30:58.539Z,5.10
2022-09-24T16:33:27.307Z,5.03
2022-09-24T16:35:55.161Z,6.15
2022-09-24T16:38:24.457Z,5.63
2022-09-24T16:41:00.827Z,4.72
2022-09-24T16:43:29.106Z,5.28
2022-09-24T16:46:01.886Z,5.47
2022-09-24T16:48:29.956Z,5.15
2022-09-24T16:51:04.274Z,5.40
2022-09-24T16:53:34.709Z,5.40
2022-09-24T16:56:07.747Z,5.47
2022-09-24T16:58:35.851Z,5.80
2022-09-24T17:01:06.046Z,4.82
2022-09-24T17:03:34.138Z,4.75
2022-09-24T17:06:02.534Z,4.57
2022-09-24T17:08:47.935Z,5.13
2022-09-24T17:13:43.851Z,5.05
2022-09-24T17:16:11.913Z,4.75
2022-09-24T17:18:40.298Z,5.28
2022-09-24T17:21:11.122Z,4.63
2022-09-24T17:23:40.818Z,5.38
2022-09-24T17:26:11.480Z,5.45
2022-09-24T17:28:41.024Z,5.32
2022-09-24T17:31:09.940Z,5.03
2022-09-24T17:33:43.229Z,4.28
2022-09-24T17:36:14.083Z,4.80
2022-09-24T17:38:43.910Z,4.32
2022-09-24T17:41:13.830Z,4.40
2022-09-24T17:43:42.931Z,4.60
2022-09-24T17:46:14.572Z,5.07
2022-09-24T17:48:44.382Z,4.95
2022-09-24T17:51:14.244Z,4.50
2022-09-24T17:53:44.310Z,5.13
2022-09-24T17:56:13.302Z,4.68
2022-09-24T17:58:43.156Z,4.72
2022-09-24T18:01:13.304Z,4.75
2022-09-24T18:03:42.124Z,4.00
2022-09-24T18:06:12.089Z,4.30
2022-09-24T18:08:41.144Z,4.47
2022-09-24T18:11:13.518Z,4.57
2022-09-24T18:13:42.235Z,4.05
2022-09-24T18:16:12.440Z,3.97
2022-09-24T18:18:41.340Z,4.28
2022-09-24T18:21:10.933Z,4.93
2022-09-24T18:23:38.919Z,4.20
2022-09-24T18:26:13.786Z,4.10
2022-09-24T18:28:42.892Z,4.55
2022-09-24T18:31:11.587Z,3.70
2022-09-24T18:33:41.423Z,3.95
2022-09-24T18:36:11.863Z,4.07
2022-09-24T18:38:40.046Z,4.13
2022-09-24T18:41:10.242Z,4.20
2022-09-24T18:43:39.864Z,3.67
2022-09-24T18:46:09.869Z,4.18
2022-09-24T18:48:38.230Z,3.83
2022-09-24T18:51:06.883Z,4.28
2022-09-24T18:53:35.308Z,4.30
2022-09-24T18:56:06.589Z,3.70
2022-09-24T18:58:35.052Z,3.58
2022-09-24T19:01:07.797Z,3.83
2022-09-24T19:03:36.325Z,3.88
2022-09-24T19:06:06.776Z,4.07
2022-09-24T19:08:36.342Z,3.80
2022-09-24T19:11:07.725Z,4.20
2022-09-24T19:13:36.842Z,3.10
2022-09-24T19:16:08.203Z,3.65
2022-09-24T19:18:36.615Z,3.53
2022-09-24T19:21:06.557Z,3.80
2022-09-24T19:23:37.486Z,3.85
2022-09-24T19:26:05.974Z,3.42
2022-09-24T19:28:34.639Z,3.42
2022-09-24T19:31:02.951Z,3.78
2022-09-24T19:33:32.277Z,4.05
2022-09-24T19:36:03.683Z,4.13
2022-09-24T19:38:33.193Z,3.53
2022-09-24T19:41:02.106Z,2.97
2022-09-24T19:43:33.178Z,3.47
2022-09-24T19:46:02.823Z,3.60
2022-09-24T19:48:33.928Z,3.70
2022-09-24T19:51:03.608Z,3.42
2022-09-24T19:53:32.082Z,3.40
2022-09-24T19:56:00.074Z,3.60
2022-09-24T19:58:28.504Z,4.07
2022-09-24T20:01:00.844Z,3.45
2022-09-24T20:03:28.750Z,3.45
2022-09-24T20:05:57.977Z,3.35
2022-09-24T20:08:26.342Z,3.38
2022-09-24T20:10:54.201Z,3.33
2022-09-24T20:13:22.429Z,3.33
2022-09-24T20:15:59.122Z,3.13
2022-09-24T20:18:27.240Z,3.58
2022-09-24T20:20:55.381Z,3.17
2022-09-24T20:23:24.984Z,3.25
2022-09-24T20:26:10.962Z,3.10
2022-09-24T20:28:39.526Z,2.92
2022-09-24T20:31:10.918Z,3.75
2022-09-24T20:33:41.037Z,3.50
2022-09-24T20:36:15.426Z,3.20
2022-09-24T20:38:48.229Z,3.08
2022-09-24T20:41:17.925Z,3.38
2022-09-24T20:43:46.708Z,3.22
2022-09-24T20:46:17.669Z,2.63
2022-09-24T20:48:45.972Z,2.90
2022-09-24T20:51:15.973Z,3.08
2022-09-24T20:53:43.852Z,2.60
2022-09-24T20:56:13.661Z,3.00
2022-09-24T20:58:42.398Z,3.13
2022-09-24T21:01:11.203Z,2.60
2022-09-24T21:03:45.533Z,2.88
2022-09-24T21:06:14.939Z,2.85
2022-09-24T21:08:44.464Z,2.80
2022-09-24T21:11:16.315Z,3.63
2022-09-24T21:13:46.012Z,2.78
2022-09-24T21:16:14.024Z,2.85
2022-09-24T21:18:44.983Z,2.83
2022-09-24T21:21:16.025Z,2.90
2022-09-24T21:23:44.622Z,2.83
2022-09-24T21:26:16.691Z,2.90
2022-09-24T21:28:45.199Z,2.33
2022-09-24T21:31:13.852Z,2.65
2022-09-24T21:33:46.319Z,2.75
2022-09-24T21:36:18.518Z,2.58
2022-09-24T21:38:47.068Z,2.55
2022-09-24T21:41:16.294Z,2.90
2022-09-24T21:43:44.248Z,2.45
2022-09-24T21:46:13.745Z,2.83
2022-09-24T21:48:41.766Z,2.50
2022-09-24T21:51:13.577Z,2.95
2022-09-24T21:53:41.923Z,2.33
2022-09-24T21:56:09.786Z,2.63
2022-09-24T21:58:39.081Z,2.30
2022-09-24T22:01:14.064Z,2.45
2022-09-24T22:06:09.971Z,2.40
2022-09-24T22:08:38.038Z,2.40
2022-09-24T22:11:08.062Z,2.20
2022-09-24T22:13:38.269Z,2.90
2022-09-24T22:16:07.302Z,2.38
2022-09-24T22:18:35.639Z,2.42
2022-09-24T22:21:07.705Z,2.78
2022-09-24T22:23:35.715Z,2.28
2022-09-24T22:26:03.991Z,2.38
2022-09-24T22:28:31.955Z,2.90
2022-09-24T22:31:04.916Z,2.80
2022-09-24T22:33:50.731Z,2.47
2022-09-24T22:36:19.334Z,2.08
2022-09-24T22:38:48.635Z,2.25
2022-09-24T22:41:16.555Z,3.08
2022-09-24T22:43:44.507Z,2.60
2022-09-24T22:46:16.346Z,2.13
2022-09-24T22:48:44.707Z,1.85
2022-09-24T22:51:12.589Z,2.35
2022-09-24T22:53:42.638Z,2.35
2022-09-24T22:56:12.864Z,2.53
2022-09-24T22:58:43.274Z,2.17
2022-09-24T23:01:15.137Z,2.15
2022-09-24T23:03:44.133Z,2.42
2022-09-24T23:06:12.737Z,2.75
2022-09-24T23:08:42.659Z,2.42
2022-09-24T23:11:13.422Z,2.83
2022-09-24T23:13:42.937Z,1.98
2022-09-24T23:16:14.057Z,2.03
2022-09-24T23:18:44.132Z,2.05
2022-09-24T23:21:14.168Z,2.45
2022-09-24T23:23:42.144Z,1.77
2022-09-24T23:26:16.625Z,2.65
2022-09-24T23:28:45.630Z,3.08
2022-09-24T23:31:16.125Z,2.40
2022-09-24T23:33:44.274Z,2.22
2022-09-24T23:36:13.691Z,2.83
2022-09-24T23:38:42.794Z,2.00
2022-09-24T23:41:11.736Z,2.47
2022-09-24T23:43:39.658Z,2.38
2022-09-24T23:46:08.074Z,2.40
2022-09-24T23:48:38.068Z,2.15
2022-09-24T23:51:06.649Z,2.00
2022-09-24T23:53:35.178Z,2.13
2022-09-24T23:56:04.239Z,1.95
2022-09-24T23:58:32.377Z,2.35
